Terminal Aerodrome Forecast
Issued by NWS

Home | Current Version | Previous Version | Text Only | Print | Product List | Glossary On
Versions: 1 2 3 4 5 6 7 8 9 10 11 12 13 14 15 16
000
FTUS44 KBMX 281100
TAFTCL
TAF
KTCL 281138Z 2812/2912 15004KT 2SM RA BR BKN007 OVC012
     FM281500 32004KT 5SM -RA BR OVC007
     FM281800 34007KT 5SM -RA BR SCT007 OVC012
      TEMPO 2823/2903 2SM RA BR OVC005
     FM290300 35003KT 4SM -RA BR OVC005=

USA.gov is the U.S. government's official web portal to all federal, state and local government web resources and services.